Time;durP1;ratioP1;P1;durP2;ratioP2;P2;SDS_P1;SDS_P2;PMS_P1;PMS_P2;Temp;Humidity;BMP_temperature;BMP_pressure;BME280_temperature;BME280_humidity;BME280_pressure;Samples;Min_cycle;Max_cycle;Signal;HPM_P1;HPM_P2
2022/01/16 00:02:10;;;;;;;52.85;10.52;;;;;;;;;;5040005;28;20044;-65
2022/01/16 00:04:34;;;;;;;33.80;9.35;;;;;;;;;;5061369;28;20057;-65
2022/01/16 00:07:03;;;;;;;30.08;10.07;;;;;;;;;;5056009;28;20080;-65
2022/01/16 00:09:31;;;;;;;38.75;10.60;;;;;;;;;;5056136;28;20098;-65
2022/01/16 00:12:00;;;;;;;35.45;9.60;;;;;;;;;;5059362;28;20058;-65
2022/01/16 00:14:28;;;;;;;27.58;9.32;;;;;;;;;;5058208;28;20084;-65
2022/01/16 00:16:54;;;;;;;33.75;10.30;;;;;;;;;;5061005;28;20088;-65
2022/01/16 00:19:21;;;;;;;37.45;10.57;;;;;;;;;;5055648;28;20068;-65
2022/01/16 00:21:48;;;;;;;47.08;11.23;;;;;;;;;;5061420;28;20131;-65
2022/01/16 00:24:14;;;;;;;65.57;13.45;;;;;;;;;;5057729;28;20572;-65
2022/01/16 00:26:41;;;;;;;53.25;11.40;;;;;;;;;;5042855;28;20053;-65
2022/01/16 00:29:08;;;;;;;43.20;10.48;;;;;;;;;;5057545;28;20074;-65
2022/01/16 00:31:37;;;;;;;56.35;11.27;;;;;;;;;;5057511;28;20096;-65
2022/01/16 00:34:04;;;;;;;35.28;9.65;;;;;;;;;;5058662;28;20057;-65
2022/01/16 00:36:31;;;;;;;42.08;9.00;;;;;;;;;;5057504;28;20481;-65
2022/01/16 00:38:58;;;;;;;27.00;8.85;;;;;;;;;;5056928;28;20132;-65
2022/01/16 00:41:25;;;;;;;40.63;8.32;;;;;;;;;;5058389;28;20088;-65
2022/01/16 00:43:52;;;;;;;32.20;8.23;;;;;;;;;;5043554;28;20135;-65
2022/01/16 00:46:19;;;;;;;43.13;8.52;;;;;;;;;;5043812;28;20296;-65
2022/01/16 00:48:46;;;;;;;40.70;8.43;;;;;;;;;;5042002;28;20444;-65
2022/01/16 00:51:13;;;;;;;47.72;8.48;;;;;;;;;;5024323;28;20059;-65
2022/01/16 00:53:42;;;;;;;25.92;7.40;;;;;;;;;;5043279;28;20847;-66
2022/01/16 00:56:09;;;;;;;35.65;7.75;;;;;;;;;;5055831;28;20147;-65
2022/01/16 00:58:35;;;;;;;34.25;8.13;;;;;;;;;;5053930;28;20107;-65
2022/01/16 01:01:02;;;;;;;49.10;8.70;;;;;;;;;;5056699;28;20489;-65
2022/01/16 01:03:30;;;;;;;42.60;7.95;;;;;;;;;;5056699;28;20052;-65
2022/01/16 01:05:56;;;;;;;;;;;;;;;;;;5054437;28;20103;-65
2022/01/16 01:08:23;;;;;;;39.38;9.38;;;;;;;;;;5058278;28;20445;-65
2022/01/16 01:10:53;;;;;;;41.70;9.60;;;;;;;;;;5058067;28;20040;-65
2022/01/16 01:16:16;;;;;;;45.47;8.82;;;;;;;;;;5035425;28;20072;-65
2022/01/16 01:18:44;;;;;;;86.25;11.65;;;;;;;;;;5058289;28;20102;-65
2022/01/16 01:21:23;;;;;;;30.52;7.63;;;;;;;;;;5055568;28;20051;-65
2022/01/16 01:23:51;;;;;;;75.60;11.43;;;;;;;;;;5061189;28;20059;-65
2022/01/16 01:26:19;;;;;;;40.55;9.02;;;;;;;;;;5055145;28;20168;-65
2022/01/16 01:28:46;;;;;;;30.77;8.07;;;;;;;;;;5052258;28;20146;-65
2022/01/16 01:31:12;;;;;;;29.25;6.57;;;;;;;;;;5056025;28;20139;-65
2022/01/16 01:33:39;;;;;;;41.28;8.18;;;;;;;;;;5053325;28;20072;-65
2022/01/16 01:36:05;;;;;;;28.02;7.85;;;;;;;;;;5056213;28;20088;-65
2022/01/16 01:38:32;;;;;;;29.13;7.32;;;;;;;;;;5054626;28;20053;-65
2022/01/16 01:40:59;;;;;;;39.67;7.18;;;;;;;;;;5056371;28;20131;-65
2022/01/16 01:51:26;;;;;;;20.98;4.43;;;;;;;;;;5055180;28;20072;-65
2022/01/16 01:53:55;;;;;;;;;;;;;;;;;;5060122;28;20082;-65
2022/01/16 01:56:23;;;;;;;15.90;4.32;;;;;;;;;;5043812;28;20016;-65
2022/01/16 01:58:50;;;;;;;11.02;3.65;;;;;;;;;;5041882;28;20135;-65
2022/01/16 02:01:17;;;;;;;14.85;4.15;;;;;;;;;;5043044;28;20135;-65
2022/01/16 02:03:44;;;;;;;8.02;3.58;;;;;;;;;;5042329;28;20045;-65
2022/01/16 02:06:18;;;;;;;15.60;3.78;;;;;;;;;;5041786;28;20053;-65
2022/01/16 02:08:46;;;;;;;9.02;3.30;;;;;;;;;;5045052;28;20077;-65
2022/01/16 02:11:12;;;;;;;;;;;;;;;;;;5045989;28;20179;-65
2022/01/16 02:13:52;;;;;;;18.63;3.70;;;;;;;;;;5046188;28;20237;-65
2022/01/16 02:30:53;;;;;;;11.43;4.07;;;;;;;;;;5059802;28;20131;-65
2022/01/16 02:35:37;;;;;;;16.63;3.55;;;;;;;;;;5058787;28;20050;-65
2022/01/16 02:38:05;;;;;;;13.65;3.63;;;;;;;;;;5061527;28;20624;-65
2022/01/16 02:40:32;;;;;;;10.68;4.20;;;;;;;;;;5049165;28;20132;-65
2022/01/16 02:43:05;;;;;;;21.55;4.38;;;;;;;;;;5058486;28;20055;-65
2022/01/16 02:45:35;;;;;;;9.13;2.50;;;;;;;;;;5061688;28;20628;-65
2022/01/16 02:48:03;;;;;;;12.10;3.20;;;;;;;;;;5060770;28;20136;-65
2022/01/16 02:50:30;;;;;;;12.23;3.70;;;;;;;;;;5061022;28;20061;-65
2022/01/16 02:52:56;;;;;;;12.85;4.20;;;;;;;;;;5055894;28;20106;-65
2022/01/16 02:55:29;;;;;;;11.38;3.40;;;;;;;;;;5059211;28;20084;-65
2022/01/16 02:57:56;;;;;;;13.05;3.63;;;;;;;;;;5056515;28;20135;-66
2022/01/16 03:00:23;;;;;;;12.85;3.15;;;;;;;;;;5059652;28;20049;-65
2022/01/16 03:02:49;;;;;;;11.25;3.28;;;;;;;;;;5061272;28;20135;-65
2022/01/16 03:05:16;;;;;;;9.73;2.97;;;;;;;;;;5059507;28;20045;-65
2022/01/16 03:07:43;;;;;;;9.95;3.13;;;;;;;;;;5060577;28;20083;-66
2022/01/16 03:13:05;;;;;;;13.77;3.20;;;;;;;;;;5036894;28;20044;-66
2022/01/16 03:15:33;;;;;;;10.15;3.00;;;;;;;;;;5052770;28;20584;-66
2022/01/16 03:23:18;;;;;;;12.20;2.50;;;;;;;;;;5058848;28;20139;-66
2022/01/16 03:25:45;;;;;;;10.43;2.93;;;;;;;;;;5055984;28;20151;-66
2022/01/16 03:28:12;;;;;;;8.55;2.58;;;;;;;;;;5064274;28;20171;-65
2022/01/16 03:30:46;;;;;;;7.13;2.80;;;;;;;;;;5061128;28;20153;-66
2022/01/16 03:33:12;;;;;;;7.53;2.63;;;;;;;;;;5057298;28;20136;-66
2022/01/16 03:35:39;;;;;;;7.20;2.53;;;;;;;;;;5046172;28;20280;-66
2022/01/16 03:38:06;;;;;;;7.90;2.50;;;;;;;;;;5045362;28;20483;-65
2022/01/16 03:40:32;;;;;;;5.75;1.95;;;;;;;;;;5047494;28;20045;-65
2022/01/16 03:43:09;;;;;;;9.13;2.50;;;;;;;;;;5044502;28;20066;-65
2022/01/16 03:45:37;;;;;;;;;;;;;;;;;;5057517;28;20058;-66
2022/01/16 03:48:04;;;;;;;8.05;1.95;;;;;;;;;;5080797;28;19966;-66
2022/01/16 03:50:30;;;;;;;5.35;1.90;;;;;;;;;;5074632;28;20132;-66
2022/01/16 03:52:57;;;;;;;4.03;1.40;;;;;;;;;;5079387;28;20044;-66
2022/01/16 03:55:23;;;;;;;6.97;1.80;;;;;;;;;;5081166;28;20106;-66
2022/01/16 03:57:49;;;;;;;2.40;1.27;;;;;;;;;;5082434;28;20047;-66
2022/01/16 04:00:23;;;;;;;2.80;1.15;;;;;;;;;;5060310;28;20125;-66
2022/01/16 04:02:49;;;;;;;2.83;1.23;;;;;;;;;;5058341;28;20555;-66
2022/01/16 04:05:15;;;;;;;4.60;1.45;;;;;;;;;;5059325;28;20048;-66
2022/01/16 04:07:43;;;;;;;5.35;1.52;;;;;;;;;;5057769;28;20139;-66
2022/01/16 04:10:10;;;;;;;5.63;1.45;;;;;;;;;;5044616;28;20052;-66
2022/01/16 04:12:39;;;;;;;2.80;1.30;;;;;;;;;;5056124;28;20111;-66
2022/01/16 04:17:40;;;;;;;3.67;1.30;;;;;;;;;;5059988;28;20084;-66
2022/01/16 04:20:06;;;;;;;1.38;0.95;;;;;;;;;;5058781;28;20052;-66
2022/01/16 04:22:33;;;;;;;2.20;1.10;;;;;;;;;;5056594;28;20078;-66
2022/01/16 04:24:59;;;;;;;1.90;0.95;;;;;;;;;;5059408;28;20306;-66
2022/01/16 04:27:26;;;;;;;1.95;1.10;;;;;;;;;;5056475;28;20536;-66
2022/01/16 04:29:53;;;;;;;4.28;1.38;;;;;;;;;;5052694;28;20776;-66
2022/01/16 04:32:19;;;;;;;4.85;1.30;;;;;;;;;;5055667;28;20489;-66
2022/01/16 04:34:47;;;;;;;2.45;1.30;;;;;;;;;;5084007;28;20167;-66
2022/01/16 04:37:14;;;;;;;8.35;1.48;;;;;;;;;;5078191;28;20051;-66
2022/01/16 04:39:48;;;;;;;2.92;1.33;;;;;;;;;;5077924;28;20478;-66
2022/01/16 04:45:07;;;;;;;3.55;1.48;;;;;;;;;;5050749;28;22391;-66
2022/01/16 04:47:33;;;;;;;4.13;1.50;;;;;;;;;;5043939;28;20048;-66
2022/01/16 04:50:00;;;;;;;3.00;1.17;;;;;;;;;;5041936;28;20055;-66
2022/01/16 04:52:26;;;;;;;3.00;1.30;;;;;;;;;;5043178;28;20048;-66
2022/01/16 04:54:53;;;;;;;3.20;0.95;;;;;;;;;;5044329;28;20135;-66
2022/01/16 04:57:19;;;;;;;3.03;1.27;;;;;;;;;;5043363;28;20052;-66
2022/01/16 04:59:45;;;;;;;2.33;1.17;;;;;;;;;;5042245;28;20155;-66
2022/01/16 05:02:13;;;;;;;3.88;1.33;;;;;;;;;;5044823;28;20127;-66
2022/01/16 05:04:40;;;;;;;3.33;1.45;;;;;;;;;;5043047;28;20171;-66
2022/01/16 05:07:06;;;;;;;3.13;1.33;;;;;;;;;;5076992;28;20136;-66
2022/01/16 05:09:33;;;;;;;4.47;1.50;;;;;;;;;;5079157;28;20138;-67
2022/01/16 05:12:02;;;;;;;3.72;1.40;;;;;;;;;;5076197;28;20054;-66
2022/01/16 05:17:20;;;;;;;7.18;1.67;;;;;;;;;;5059470;28;20045;-66
2022/01/16 05:19:47;;;;;;;7.18;1.75;;;;;;;;;;5059698;28;20088;-66
2022/01/16 05:22:13;;;;;;;8.85;1.92;;;;;;;;;;5057212;28;20488;-66
2022/01/16 05:24:47;;;;;;;4.18;1.70;;;;;;;;;;5055508;28;20548;-66
2022/01/16 05:27:14;;;;;;;;;;;;;;;;;;5059585;28;20516;-66
2022/01/16 05:29:40;;;;;;;6.10;1.80;;;;;;;;;;5059889;28;19979;-66
2022/01/16 05:32:08;;;;;;;5.90;2.25;;;;;;;;;;5055198;28;20094;-66
2022/01/16 05:34:35;;;;;;;6.38;2.05;;;;;;;;;;5056977;28;20088;-66
2022/01/16 05:37:01;;;;;;;6.85;2.30;;;;;;;;;;5056393;28;20453;-66
2022/01/16 05:39:28;;;;;;;10.52;2.25;;;;;;;;;;5058148;28;20084;-67
2022/01/16 05:41:55;;;;;;;7.85;2.55;;;;;;;;;;5056451;28;20628;-66
2022/01/16 05:44:21;;;;;;;8.88;2.47;;;;;;;;;;5055078;28;20133;-66
2022/01/16 05:46:49;;;;;;;6.97;2.17;;;;;;;;;;5053086;28;20087;-66
2022/01/16 05:49:15;;;;;;;5.30;2.03;;;;;;;;;;5047527;28;20084;-66
2022/01/16 05:51:42;;;;;;;7.57;2.03;;;;;;;;;;5060980;28;20128;-66
2022/01/16 05:54:08;;;;;;;5.93;2.25;;;;;;;;;;5062676;28;20124;-66
2022/01/16 05:56:34;;;;;;;4.68;2.05;;;;;;;;;;5057413;28;20060;-66
2022/01/16 05:59:01;;;;;;;10.50;2.08;;;;;;;;;;5062896;28;20067;-66
2022/01/16 06:01:27;;;;;;;7.68;2.70;;;;;;;;;;5059371;28;20083;-66
2022/01/16 06:03:54;;;;;;;11.20;2.40;;;;;;;;;;5052095;28;20056;-67
2022/01/16 06:06:20;;;;;;;11.60;2.50;;;;;;;;;;5050687;28;20055;-66
2022/01/16 06:08:48;;;;;;;9.40;2.35;;;;;;;;;;5048127;28;20041;-66
2022/01/16 06:11:15;;;;;;;7.75;2.42;;;;;;;;;;5046278;28;20136;-66
2022/01/16 06:13:41;;;;;;;8.18;2.67;;;;;;;;;;5045569;28;20107;-66
2022/01/16 06:16:14;;;;;;;6.05;2.70;;;;;;;;;;5046160;28;20059;-66
2022/01/16 06:18:41;;;;;;;7.50;2.55;;;;;;;;;;5046123;28;20076;-66
2022/01/16 06:21:07;;;;;;;10.80;2.83;;;;;;;;;;5045653;28;20593;-66
2022/01/16 06:23:34;;;;;;;6.18;2.58;;;;;;;;;;5047032;28;20148;-66
2022/01/16 06:26:00;;;;;;;12.30;2.85;;;;;;;;;;5045512;28;20167;-66
2022/01/16 06:28:28;;;;;;;10.25;2.83;;;;;;;;;;5045810;28;20182;-66
2022/01/16 06:31:03;;;;;;;10.48;2.88;;;;;;;;;;5046895;28;20045;-66
2022/01/16 06:33:30;;;;;;;10.38;3.40;;;;;;;;;;5044629;28;20053;-66
2022/01/16 06:35:56;;;;;;;9.20;3.08;;;;;;;;;;5044718;28;20766;-67
2022/01/16 06:38:29;;;;;;;8.05;3.03;;;;;;;;;;5048146;28;20041;-66
2022/01/16 06:40:56;;;;;;;14.07;3.65;;;;;;;;;;5043586;28;20059;-67
2022/01/16 06:43:22;;;;;;;8.70;3.35;;;;;;;;;;5045832;28;20055;-66
2022/01/16 06:45:49;;;;;;;10.55;3.10;;;;;;;;;;5045956;28;20086;-66
2022/01/16 06:48:15;;;;;;;12.23;4.13;;;;;;;;;;5044811;28;20098;-66
2022/01/16 06:50:42;;;;;;;9.75;3.85;;;;;;;;;;5043949;28;20938;-66
2022/01/16 06:53:09;;;;;;;11.80;4.32;;;;;;;;;;5044810;28;20052;-66
2022/01/16 06:55:35;;;;;;;13.48;3.30;;;;;;;;;;5042273;28;20759;-66
2022/01/16 06:58:01;;;;;;;11.82;3.75;;;;;;;;;;5045833;28;20052;-66
2022/01/16 07:00:28;;;;;;;12.18;3.80;;;;;;;;;;5045614;28;20132;-66
2022/01/16 07:02:55;;;;;;;10.73;3.77;;;;;;;;;;5045503;28;20313;-66
2022/01/16 07:05:21;;;;;;;13.20;3.45;;;;;;;;;;5046585;28;20388;-66
2022/01/16 07:07:48;;;;;;;13.60;3.65;;;;;;;;;;5044127;28;20048;-66
2022/01/16 07:10:15;;;;;;;11.68;3.92;;;;;;;;;;5042869;28;20135;-66
2022/01/16 07:12:41;;;;;;;11.32;3.83;;;;;;;;;;5047536;28;20412;-66
2022/01/16 07:15:08;;;;;;;9.95;3.38;;;;;;;;;;5045615;28;20049;-66
2022/01/16 07:17:34;;;;;;;13.02;3.60;;;;;;;;;;5044586;28;20583;-66
2022/01/16 07:20:01;;;;;;;15.98;3.92;;;;;;;;;;5044054;28;20140;-66
2022/01/16 07:22:28;;;;;;;13.80;4.10;;;;;;;;;;5043222;28;20049;-66
2022/01/16 07:24:54;;;;;;;13.50;3.55;;;;;;;;;;5047474;28;20132;-66
2022/01/16 07:27:21;;;;;;;13.18;3.55;;;;;;;;;;5044015;28;20094;-66
2022/01/16 07:29:47;;;;;;;10.27;3.20;;;;;;;;;;5041709;28;20122;-66
2022/01/16 07:32:14;;;;;;;10.83;3.30;;;;;;;;;;5046251;28;20045;-66
2022/01/16 07:34:41;;;;;;;12.82;3.60;;;;;;;;;;5044188;28;20052;-66
2022/01/16 07:37:08;;;;;;;8.10;2.80;;;;;;;;;;5044281;28;20087;-66
2022/01/16 07:39:37;;;;;;;12.65;3.60;;;;;;;;;;5044819;28;20135;-66
2022/01/16 07:42:04;;;;;;;12.23;3.60;;;;;;;;;;5044198;28;20136;-66
2022/01/16 07:44:31;;;;;;;13.90;3.80;;;;;;;;;;5043250;28;20045;-66
2022/01/16 07:46:58;;;;;;;13.82;4.68;;;;;;;;;;5044520;28;20102;-66
2022/01/16 07:49:25;;;;;;;10.88;4.00;;;;;;;;;;5042051;28;20500;-66
2022/01/16 07:51:51;;;;;;;18.73;4.28;;;;;;;;;;5046329;28;20214;-66
2022/01/16 07:54:19;;;;;;;11.98;4.20;;;;;;;;;;5044708;28;20523;-66
2022/01/16 07:56:45;;;;;;;13.82;3.97;;;;;;;;;;5043666;28;20048;-66
2022/01/16 07:59:12;;;;;;;15.50;4.05;;;;;;;;;;5043862;28;20048;-66
2022/01/16 08:01:38;;;;;;;14.68;4.60;;;;;;;;;;5049068;28;20058;-66
2022/01/16 08:04:04;;;;;;;23.67;5.18;;;;;;;;;;5057018;28;20055;-66
2022/01/16 08:06:31;;;;;;;18.50;5.15;;;;;;;;;;5056849;28;20057;-67
2022/01/16 08:08:57;;;;;;;27.75;6.47;;;;;;;;;;5057422;28;20566;-66
2022/01/16 08:11:24;;;;;;;25.73;5.72;;;;;;;;;;5056151;28;20095;-66
2022/01/16 08:13:50;;;;;;;25.50;6.70;;;;;;;;;;5059600;28;20492;-66
2022/01/16 08:16:17;;;;;;;23.27;6.20;;;;;;;;;;5058316;28;20072;-66
2022/01/16 08:18:43;;;;;;;26.50;7.03;;;;;;;;;;5062509;28;20084;-66
2022/01/16 08:21:10;;;;;;;20.10;6.47;;;;;;;;;;5059334;28;20491;-66
2022/01/16 08:23:36;;;;;;;38.17;9.07;;;;;;;;;;5043052;28;20132;-66
2022/01/16 08:26:04;;;;;;;30.67;8.20;;;;;;;;;;5040656;28;20167;-66
2022/01/16 08:28:30;;;;;;;19.08;6.22;;;;;;;;;;5046251;28;20052;-66
2022/01/16 08:30:57;;;;;;;31.83;8.05;;;;;;;;;;5041907;28;20177;-66
2022/01/16 08:33:23;;;;;;;24.55;7.85;;;;;;;;;;5044047;28;22589;-66
2022/01/16 08:35:50;;;;;;;35.65;7.57;;;;;;;;;;5045580;28;20044;-66
2022/01/16 08:38:17;;;;;;;30.90;8.32;;;;;;;;;;5043582;28;20233;-66
2022/01/16 08:40:43;;;;;;;31.95;8.18;;;;;;;;;;5042315;28;20544;-66
2022/01/16 08:43:10;;;;;;;19.60;5.90;;;;;;;;;;5044998;28;20566;-66
2022/01/16 08:45:37;;;;;;;17.03;6.20;;;;;;;;;;5045218;28;20154;-66
2022/01/16 08:48:04;;;;;;;22.15;6.68;;;;;;;;;;5042582;28;20076;-66
2022/01/16 08:50:31;;;;;;;19.30;6.68;;;;;;;;;;5045516;28;20057;-66
2022/01/16 08:52:58;;;;;;;25.75;6.25;;;;;;;;;;5043778;28;21073;-66
2022/01/16 08:55:24;;;;;;;23.10;7.10;;;;;;;;;;5042044;28;20135;-66
2022/01/16 08:57:51;;;;;;;23.90;5.82;;;;;;;;;;5045745;28;20049;-66
2022/01/16 09:00:17;;;;;;;25.25;5.90;;;;;;;;;;5044770;28;20143;-66
2022/01/16 09:02:43;;;;;;;25.35;6.68;;;;;;;;;;5044633;28;20084;-66
2022/01/16 09:05:16;;;;;;;18.52;6.20;;;;;;;;;;5045793;28;20469;-66
2022/01/16 09:07:43;;;;;;;22.27;5.82;;;;;;;;;;5044074;28;21008;-66
2022/01/16 09:10:10;;;;;;;19.52;5.63;;;;;;;;;;5053703;28;20048;-66
2022/01/16 09:12:37;;;;;;;18.83;5.40;;;;;;;;;;5044946;28;20514;-66
2022/01/16 09:15:08;;;;;;;20.77;5.45;;;;;;;;;;5044349;28;20048;-66
2022/01/16 09:17:34;;;;;;;14.40;5.20;;;;;;;;;;5043609;28;20123;-66
2022/01/16 09:20:09;;;;;;;14.23;5.15;;;;;;;;;;5045279;28;20055;-65
2022/01/16 09:22:39;;;;;;;17.20;4.63;;;;;;;;;;5057263;28;20103;-66
2022/01/16 09:25:06;;;;;;;14.45;4.65;;;;;;;;;;5062714;28;20040;-66
2022/01/16 09:27:33;;;;;;;11.47;4.23;;;;;;;;;;5045482;28;20573;-66
2022/01/16 09:29:59;;;;;;;8.98;3.88;;;;;;;;;;5060110;28;20083;-66
2022/01/16 09:32:26;;;;;;;12.88;4.03;;;;;;;;;;5061457;28;20131;-66
2022/01/16 09:35:00;;;;;;;9.77;3.75;;;;;;;;;;5059732;28;20056;-66
2022/01/16 09:37:27;;;;;;;7.40;3.25;;;;;;;;;;5062712;28;20048;-66
2022/01/16 09:39:54;;;;;;;14.25;4.55;;;;;;;;;;5062373;28;20139;-66
2022/01/16 09:42:28;;;;;;;11.13;3.53;;;;;;;;;;5061682;28;20463;-66
2022/01/16 09:44:54;;;;;;;7.68;3.53;;;;;;;;;;5061960;28;20044;-66
2022/01/16 09:47:21;;;;;;;11.50;3.80;;;;;;;;;;5059823;28;20135;-66
2022/01/16 09:49:48;;;;;;;9.18;4.15;;;;;;;;;;5060386;28;20044;-66
2022/01/16 09:52:15;;;;;;;15.70;4.00;;;;;;;;;;5052318;28;20068;-66
2022/01/16 09:54:42;;;;;;;10.05;3.15;;;;;;;;;;5061966;28;20049;-66
2022/01/16 09:57:10;;;;;;;12.82;5.05;;;;;;;;;;5060940;28;20132;-66
2022/01/16 09:59:36;;;;;;;13.25;5.05;;;;;;;;;;5062395;28;20091;-66
2022/01/16 10:02:03;;;;;;;17.73;4.47;;;;;;;;;;5062492;28;20083;-66
2022/01/16 10:04:32;;;;;;;12.05;4.28;;;;;;;;;;5059092;28;20096;-66
2022/01/16 10:07:00;;;;;;;14.52;5.05;;;;;;;;;;5059575;28;20136;-66
2022/01/16 10:09:26;;;;;;;15.77;5.43;;;;;;;;;;5057945;28;20140;-66
2022/01/16 10:11:56;;;;;;;13.73;4.97;;;;;;;;;;5066155;28;20084;-66
2022/01/16 10:14:37;;;;;;;15.95;6.78;;;;;;;;;;5064137;28;20049;-66
2022/01/16 10:17:10;;;;;;;19.25;5.63;;;;;;;;;;5056637;28;20565;-66
2022/01/16 10:19:37;;;;;;;16.13;4.53;;;;;;;;;;5062492;28;20088;-66
2022/01/16 10:22:05;;;;;;;13.77;4.97;;;;;;;;;;5053379;28;21486;-66
2022/01/16 10:24:33;;;;;;;;;;;;;;;;;;5061816;28;20087;-66
2022/01/16 10:27:08;;;;;;;19.42;5.78;;;;;;;;;;5057950;28;20369;-66
2022/01/16 10:29:43;;;;;;;18.17;5.65;;;;;;;;;;5061616;28;20089;-66
2022/01/16 10:32:19;;;;;;;21.27;6.50;;;;;;;;;;5058582;28;20511;-66
2022/01/16 10:34:46;;;;;;;23.85;5.95;;;;;;;;;;5055112;28;20476;-66
2022/01/16 10:37:23;;;;;;;17.27;4.95;;;;;;;;;;5058885;28;20055;-66
2022/01/16 10:39:51;;;;;;;16.35;5.05;;;;;;;;;;5057058;28;20129;-66
2022/01/16 10:42:17;;;;;;;;;;;;;;;;;;5063176;28;20076;-66
2022/01/16 10:44:44;;;;;;;25.20;5.15;;;;;;;;;;5064157;28;19971;-66
2022/01/16 10:47:31;;;;;;;17.33;4.50;;;;;;;;;;5059524;28;20064;-66
2022/01/16 10:50:10;;;;;;;19.02;4.40;;;;;;;;;;5059482;28;20487;-66
2022/01/16 10:52:52;;;;;;;24.52;5.40;;;;;;;;;;5061961;28;20080;-66
2022/01/16 10:55:19;;;;;;;31.23;4.57;;;;;;;;;;5060580;28;20143;-66
2022/01/16 10:58:00;;;;;;;13.20;3.35;;;;;;;;;;5061966;28;20131;-66
2022/01/16 11:00:26;;;;;;;17.92;4.03;;;;;;;;;;5062606;28;20083;-66
2022/01/16 11:02:57;;;;;;;14.48;3.47;;;;;;;;;;5062819;28;20047;-66
2022/01/16 11:05:26;;;;;;;16.10;3.60;;;;;;;;;;5058833;28;20041;-66
2022/01/16 11:07:56;;;;;;;23.20;4.15;;;;;;;;;;5060217;28;20136;-66
2022/01/16 11:10:28;;;;;;;12.73;4.00;;;;;;;;;;5066718;28;20123;-66
2022/01/16 11:12:55;;;;;;;25.70;5.43;;;;;;;;;;5059657;28;20087;-66
2022/01/16 11:15:22;;;;;;;11.18;2.88;;;;;;;;;;5058639;28;20124;-66
2022/01/16 11:17:52;;;;;;;18.48;4.05;;;;;;;;;;5059751;28;20072;-66
2022/01/16 11:20:26;;;;;;;15.85;4.25;;;;;;;;;;5057854;28;20124;-66
2022/01/16 11:25:49;;;;;;;12.48;2.67;;;;;;;;;;5020571;28;20055;-65
2022/01/16 11:28:18;;;;;;;16.10;3.55;;;;;;;;;;5046842;28;20139;-66
2022/01/16 11:30:46;;;;;;;17.02;4.95;;;;;;;;;;5042317;28;20127;-66
2022/01/16 11:33:19;;;;;;;13.05;2.58;;;;;;;;;;5044856;28;20059;-66
2022/01/16 11:35:49;;;;;;;20.73;3.67;;;;;;;;;;5046147;28;22197;-66
2022/01/16 11:38:18;;;;;;;18.33;4.03;;;;;;;;;;5057274;28;20160;-66
2022/01/16 11:40:46;;;;;;;26.40;4.57;;;;;;;;;;5064668;28;20144;-65
2022/01/16 11:43:42;;;;;;;26.13;3.60;;;;;;;;;;5059637;28;20092;-65
2022/01/16 11:46:09;;;;;;;17.20;3.55;;;;;;;;;;5026817;28;20056;-65
2022/01/16 11:48:55;;;;;;;17.65;3.10;;;;;;;;;;5055362;28;20131;-66
2022/01/16 11:51:35;;;;;;;16.00;3.28;;;;;;;;;;5042403;28;20045;-66
2022/01/16 11:54:01;;;;;;;18.90;3.83;;;;;;;;;;5062049;28;20059;-65
2022/01/16 11:56:37;;;;;;;19.17;3.43;;;;;;;;;;5060367;28;20820;-65
2022/01/16 11:59:14;;;;;;;22.65;4.13;;;;;;;;;;5056607;28;20048;-65
2022/01/16 12:01:49;;;;;;;24.65;4.97;;;;;;;;;;5055814;28;20503;-65
2022/01/16 12:04:28;;;;;;;22.60;4.15;;;;;;;;;;5058634;28;20049;-65
2022/01/16 12:06:56;;;;;;;29.33;4.85;;;;;;;;;;5061005;28;20102;-65
2022/01/16 12:09:41;;;;;;;18.83;3.35;;;;;;;;;;5058106;28;20136;-65
2022/01/16 12:12:07;;;;;;;;;;;;;;;;;;5059288;28;20084;-65
2022/01/16 12:14:45;;;;;;;21.83;3.72;;;;;;;;;;5059687;28;19927;-65
2022/01/16 12:17:28;;;;;;;24.23;4.13;;;;;;;;;;5059533;28;20123;-65
2022/01/16 12:19:59;;;;;;;30.85;4.85;;;;;;;;;;5060664;28;20508;-65
2022/01/16 12:22:43;;;;;;;16.60;3.30;;;;;;;;;;5059651;28;20080;-65
2022/01/16 12:25:36;;;;;;;18.27;4.00;;;;;;;;;;5063063;28;20052;-65
2022/01/16 12:28:09;;;;;;;24.45;3.83;;;;;;;;;;5057660;28;20076;-65
2022/01/16 12:30:51;;;;;;;19.10;4.18;;;;;;;;;;5057092;28;20135;-65
2022/01/16 12:33:21;;;;;;;36.28;4.97;;;;;;;;;;5057681;28;20052;-65
2022/01/16 12:35:50;;;;;;;20.10;4.40;;;;;;;;;;5061603;28;20084;-65
2022/01/16 12:38:27;;;;;;;23.33;4.43;;;;;;;;;;5059950;28;20044;-65
2022/01/16 12:41:16;;;;;;;23.50;4.20;;;;;;;;;;5055704;28;20139;-66
2022/01/16 12:43:48;;;;;;;31.20;5.07;;;;;;;;;;5057164;28;20139;-65
2022/01/16 12:46:17;;;;;;;17.33;4.90;;;;;;;;;;5055980;28;20107;-66
2022/01/16 12:48:45;;;;;;;29.08;4.20;;;;;;;;;;5052469;28;20052;-66
2022/01/16 12:51:13;;;;;;;;;;;;;;;;;;5044135;28;20090;-65
2022/01/16 12:53:49;;;;;;;20.35;4.05;;;;;;;;;;5039289;28;19927;-66
2022/01/16 12:59:05;;;;;;;25.08;4.05;;;;;;;;;;5488063;23;20058;-66
2022/01/16 13:01:32;;;;;;;25.27;3.70;;;;;;;;;;4960192;28;22164;-66
2022/01/16 13:03:58;;;;;;;25.42;4.28;;;;;;;;;;4968731;28;20209;-66
2022/01/16 13:06:25;;;;;;;22.13;4.60;;;;;;;;;;4965428;28;20058;-66
2022/01/16 13:08:52;;;;;;;15.98;3.30;;;;;;;;;;4969253;28;20078;-66
2022/01/16 13:11:19;;;;;;;27.55;3.88;;;;;;;;;;4968409;28;20145;-66
2022/01/16 13:13:46;;;;;;;26.98;4.68;;;;;;;;;;4969495;28;20057;-66
2022/01/16 13:16:16;;;;;;;29.30;4.60;;;;;;;;;;4969593;28;20138;-66
2022/01/16 13:19:01;;;;;;;30.55;4.53;;;;;;;;;;4968166;28;20057;-67
2022/01/16 13:21:35;;;;;;;22.60;4.65;;;;;;;;;;4971334;28;20047;-66
2022/01/16 13:24:02;;;;;;;26.83;4.22;;;;;;;;;;4967070;28;20046;-66
2022/01/16 13:26:28;;;;;;;26.13;4.75;;;;;;;;;;4954670;28;20448;-66
2022/01/16 13:29:05;;;;;;;19.70;2.80;;;;;;;;;;4968535;28;20412;-66
2022/01/16 13:31:36;;;;;;;27.98;4.10;;;;;;;;;;4968875;28;20565;-66
2022/01/16 13:34:09;;;;;;;28.55;5.15;;;;;;;;;;4966180;28;20101;-66
2022/01/16 13:36:37;;;;;;;20.67;3.30;;;;;;;;;;4966603;28;20145;-67
2022/01/16 13:39:06;;;;;;;28.58;3.80;;;;;;;;;;4969779;28;20513;-66
2022/01/16 13:41:33;;;;;;;28.08;4.53;;;;;;;;;;4969607;28;20150;-66
2022/01/16 13:44:00;;;;;;;25.95;4.50;;;;;;;;;;4969952;28;20442;-69
2022/01/16 13:46:29;;;;;;;19.97;3.10;;;;;;;;;;4968487;28;20105;-66
2022/01/16 13:48:59;;;;;;;26.25;5.35;;;;;;;;;;4968392;28;20043;-66
2022/01/16 13:51:31;;;;;;;25.13;4.43;;;;;;;;;;4967770;28;20057;-66
2022/01/16 13:54:08;;;;;;;33.97;5.13;;;;;;;;;;4968849;28;20159;-66
2022/01/16 13:56:38;;;;;;;25.45;4.43;;;;;;;;;;4968406;28;20142;-66
2022/01/16 13:59:09;;;;;;;31.20;4.63;;;;;;;;;;4963235;28;20803;-66
2022/01/16 14:01:39;;;;;;;38.80;5.55;;;;;;;;;;4958301;28;20441;-66
2022/01/16 14:04:14;;;;;;;38.38;5.10;;;;;;;;;;4954125;28;20047;-66
2022/01/16 14:06:55;;;;;;;30.93;5.17;;;;;;;;;;4956128;28;20130;-67
2022/01/16 14:09:22;;;;;;;33.75;4.60;;;;;;;;;;4962168;28;20390;-66
2022/01/16 14:11:50;;;;;;;29.40;4.60;;;;;;;;;;4966290;28;20066;-66
2022/01/16 14:14:16;;;;;;;;;;;;;;;;;;4961896;28;20047;-66
2022/01/16 14:19:12;;;;;;;;;;;;;;;;;;4963632;28;19930;-66
2022/01/16 14:24:05;;;;;;;;;;;;;;;;;;4962557;28;20032;-66
2022/01/16 14:26:31;;;;;;;;;;;;;;;;;;4965388;28;19960;-66
2022/01/16 14:28:57;;;;;;;;;;;;;;;;;;4964634;28;20416;-66
2022/01/16 14:31:24;;;;;;;;;;;;;;;;;;4964149;28;19930;-66
2022/01/16 14:34:19;;;;;;;;;;;;;;;;;;4907331;29;19923;-66
2022/01/16 14:36:45;;;;;;;;;;;;;;;;;;4904173;29;19981;-66
2022/01/16 14:39:33;;;;;;;;;;;;;;;;;;4901353;29;20009;-66
2022/01/16 14:42:35;;;;;;;;;;;;;;;;;;4868205;29;20402;-66
2022/01/16 14:45:08;;;;;;;;;;;;;;;;;;4866263;29;20018;-66
2022/01/16 14:47:34;;;;;;;;;;;;;;;;;;4867283;29;19927;-66
2022/01/16 14:50:01;;;;;;;;;;;;;;;;;;4867827;29;20024;-66
2022/01/16 14:52:27;;;;;;;;;;;;;;;;;;4866804;29;20377;-66
2022/01/16 14:54:54;;;;;;;;;;;;;;;;;;4866987;29;20136;-66
2022/01/16 14:57:21;;;;;;;;;;;;;;;;;;4867938;29;20004;-66
2022/01/16 14:59:57;;;;;;;;;;;;;;;;;;4866634;29;20016;-66
2022/01/16 15:02:23;;;;;;;;;;;;;;;;;;4865939;29;19939;-66
2022/01/16 15:04:50;;;;;;;;;;;;;;;;;;4867168;29;20677;-66
2022/01/16 15:07:22;;;;;;;;;;;;;;;;;;4869352;29;20392;-66
2022/01/16 15:09:48;;;;;;;;;;;;;;;;;;4886044;29;20422;-66
2022/01/16 15:12:18;;;;;;;;;;;;;;;;;;4922125;29;20018;-66
2022/01/16 15:14:52;;;;;;;;;;;;;;;;;;4919978;29;19977;-66
2022/01/16 15:17:18;;;;;;;;;;;;;;;;;;4953930;28;20040;-66
2022/01/16 15:19:51;;;;;;;;;;;;;;;;;;4958809;28;20028;-66
2022/01/16 15:22:22;;;;;;;;;;;;;;;;;;4963689;28;19976;-66
2022/01/16 15:24:48;;;;;;;;;;;;;;;;;;4959186;28;19932;-66
2022/01/16 15:27:15;;;;;;;;;;;;;;;;;;4960194;28;20017;-66
2022/01/16 15:29:43;;;;;;;;;;;;;;;;;;4963003;28;19962;-66
2022/01/16 15:32:10;;;;;;;;;;;;;;;;;;4965118;28;19923;-66
2022/01/16 15:34:36;;;;;;;;;;;;;;;;;;4961898;28;20021;-66
2022/01/16 15:37:20;;;;;;;;;;;;;;;;;;4965332;28;20292;-66
2022/01/16 15:39:48;;;;;;;;;;;;;;;;;;4964175;28;20265;-66
2022/01/16 15:42:15;;;;;;;;;;;;;;;;;;4964190;28;20035;-66
2022/01/16 15:44:41;;;;;;;;;;;;;;;;;;4961343;28;19977;-66
2022/01/16 15:47:07;;;;;;;;;;;;;;;;;;4964812;28;19922;-66
2022/01/16 15:49:34;;;;;;;;;;;;;;;;;;4961237;28;20501;-66
2022/01/16 15:52:00;;;;;;;;;;;;;;;;;;4964967;28;20355;-66
2022/01/16 15:54:26;;;;;;;;;;;;;;;;;;4961917;28;19969;-66